مشهد, ایران

11:09 AM IRST on اكتبر 26, 2014 (GMT +0330)
Shahid Hashemi Nejad International | Change Station
CLOSE
Current Station
Airport
Location: Mashhad,
Elevation: 3278 ft
Nearby Weather Stations

Elev 3278 ft 36.27 °N, 59.63 °E | Updated 9 minutes ago

Mostly Cloudy
بیشتر ابری
66 °F
Feels Like 66 °F
N
7
باد متغير باد from شرق

امروز
High -- | Low -- °F
--% Chance of Precip.
دیروز
High -- | Low -- °F
Precip. -- در
5:48 AM 4:42 PM
Waxing Crescent, 6% visible
فشار 30.18 در
ديد 6.2 مايل، ميل (در برابر كيلومتر
ابری بیشتر ابری 3000 ft
قطره شبنم 43 °F
رطوبت 43%
بارش باران 0.00 در
برف عمیق Not available.
مادون قرمز 3 out of 12
Pollen Not available.
تمیزی هوا Not available.
Flu Activity Not available.
METAR OIMM 260730Z 09006KT 9999 BKN030 19/06 Q1022 A3020

More Conditions Fewer Conditions

فشار 30.18 در
ديد 6.2 مايل، ميل (در برابر كيلومتر
ابری بیشتر ابری 3000 ft
قطره شبنم 43 °F
رطوبت 43%
بارش باران 0.00 در
برف عمیق Not available.
مادون قرمز 3 out of 12
Pollen Not available.
تمیزی هوا Not available.
Flu Activity Not available.
METAR OIMM 260730Z 09006KT 9999 BKN030 19/06 Q1022 A3020

More Conditions Fewer Conditions

10-Day Weather Forecast

Almanac

ستاره شناسی

Oct. 26, 2014 Rise Set
وقت حقیقی 5:48 AM IRST 4:42 PM IRST
تاریک و روشن اجتماعی 5:21 AM IRST 5:08 PM IRST
تاریک روشن دریایی 4:51 AM IRST 5:38 PM IRST
شفق و فلق نجومی 4:21 AM IRST 6:08 PM IRST
ماه 7:59 AM IRST 6:35 PM IRST
میزان روشنایی روز 11h 46m
طول روز
10h 53m
Tomorrow will be 2m 6s shorter.
Waxing Crescent, 6% of the Moon is Illuminated
امروز
Waxing Crescent
Oct 30
ربع اول
Nov 6
ماه کامل
Nov 14
ربع آخر
Nov 22
New

Yesterday's Extremes

Country Highs Country Lows

Community

WunderPhotos

Upload Photos

1,765,115 photos uploaded!

Nearby

تمیزی هوا

Not available.

عمق برف

Not available.

Earthquake Activity

شهر Distance Mag. Time & Date
No recent earthquake activity has been reported nearby.
Minimum magnitude displayed is 2.5.

Coastal Water Temperatures

منطقه درجه حرارت
No Stations Reporting

Nearby Weather Stations